Philadelphia International Airport (PHL/KPHL)



Flight Aircraft Arriving
CPX2185
KSMF - Sacramento International Airport
United StatesCalifornia Sacramento, California
CPX2186
KONT - Ontario International Airport
United StatesCalifornia Ontario, California
Flight Aircraft Departing
CPX2183
KSMF - Sacramento International Airport
United StatesCalifornia Sacramento, California
CPX2187
KONT - Ontario International Airport
United StatesCalifornia Ontario, California


Airport Information
Location: Philadelphia, Pennsylvania
Coordinates: 39.8721 / -75.2407
Field Elevation: 36ft
Longest Runway: 11,992ft
ILS Approaches: YES
Landing Fees: $3,042 per flight
Jet A Price: $0.34/lbs
Charts:

Current Weather
METAR: KPHL 190054Z 29007KT 10SM FEW050 27/19 A3003 RMK AO2 SLP169 T02670194 $
TAF: KPHL 182320Z 1900/2006 32008KT P6SM SCT100 FM190800 35006KT P6SM SKC FM191300 01008KT P6SM FEW040 FM200000 05006KT P6SM SKC

Recent Arrivals
Date Flight Type Depart
09/25/2019 CPX439 B738 Chicago/Rockford International Airport (KRFD)
09/23/2019 CPX437 B738 Cincinnati/Northern Kentucky International Airport (KCVG)
09/19/2019 CPX439 B738 Chicago/Rockford International Airport (KRFD)
Recent Departures
Date Flight Type Arrive
10/10/2019 CPX438 B738 Chicago/Rockford International Airport (KRFD)
09/26/2019 CPX438 B738 Chicago/Rockford International Airport (KRFD)
09/23/2019 CPX442 B738 Cincinnati/Northern Kentucky International Airport (KCVG)